CheckWX is a tool to help pilots better visualize weather data.  It is not intended as a substitute for an official pre-flight weather briefing.

12:22:14 UTC

KSPI METAR
Abraham Lincoln Capital Airport
Springfield, Illinois, USA
Current

30 mins ago

KSPI 181152Z 31012G17KT 6SM BR OVC016 M03/M06 A3019 RMK AO2 SLP231 60000 70001 T10331056 11017 21033 53033 $
Observed
Feb-18 @ 11:52 UTC
Wind
  • 310° at 12 KTS
  • Gusting to 17 KTS
Visibility
6 SM
Flight Rules
MVFR
Conditions
Mist
Cloud Levels
  • Overcast at 1,600' AGL
Temperature
-3°C / 27°F
Dewpoint
-6°C / 21°F
Humidity
80%
Altimeter
30.19" Hg
Pressure
1023.1 hPa
Previous

2 hours ago

KSPI 181052Z AUTO 28015G19KT OVC017 M03/M05 A3015 RMK AO2 SLP216 T10281050 $
Observed
Feb-18 @ 10:52 UTC
Wind
  • 280° at 15 KTS
  • Gusting to 19 KTS
Visibility
Cloud Levels
  • Overcast at 1,700' AGL
Temperature
-3°C / 27°F
Dewpoint
-5°C / 23°F
Humidity
86%
Altimeter
30.15" Hg
Pressure
1021.6 hPa
Previous

2 hours ago

KSPI 181023Z AUTO 30011KT OVC017 M03/M04 A3013 RMK AO2 T10281044 $
Observed
Feb-18 @ 10:23 UTC
Wind
  • 300° at 11 KTS
Visibility
Cloud Levels
  • Overcast at 1,700' AGL
Temperature
-3°C / 27°F
Dewpoint
-4°C / 25°F
Humidity
93%
Altimeter
30.13" Hg
Pressure
1020.32 hPa